sensor_id;sensor_type;location;lat;lon;timestamp;temperature;humidity
67050;DHT22;53955;52.442;13.284;2023-07-02T00:01:24;22.10;67.60
67050;DHT22;53955;52.442;13.284;2023-07-02T00:03:50;22.00;68.00
67050;DHT22;53955;52.442;13.284;2023-07-02T00:06:17;22.00;67.50
67050;DHT22;53955;52.442;13.284;2023-07-02T00:08:43;22.00;68.00
67050;DHT22;53955;52.442;13.284;2023-07-02T00:11:10;22.00;68.20
67050;DHT22;53955;52.442;13.284;2023-07-02T00:13:38;22.00;68.40
67050;DHT22;53955;52.442;13.284;2023-07-02T00:16:04;22.00;68.20
67050;DHT22;53955;52.442;13.284;2023-07-02T00:18:32;22.00;68.50
67050;DHT22;53955;52.442;13.284;2023-07-02T00:21:00;22.00;69.10
67050;DHT22;53955;52.442;13.284;2023-07-02T00:23:27;22.00;68.90
67050;DHT22;53955;52.442;13.284;2023-07-02T00:25:54;22.00;69.50
67050;DHT22;53955;52.442;13.284;2023-07-02T00:28:20;22.10;68.30
67050;DHT22;53955;52.442;13.284;2023-07-02T00:30:47;22.00;69.10
67050;DHT22;53955;52.442;13.284;2023-07-02T00:33:13;22.10;68.70
67050;DHT22;53955;52.442;13.284;2023-07-02T00:35:41;22.20;68.50
67050;DHT22;53955;52.442;13.284;2023-07-02T00:38:08;22.00;68.70
67050;DHT22;53955;52.442;13.284;2023-07-02T00:40:35;22.00;69.00
67050;DHT22;53955;52.442;13.284;2023-07-02T00:43:02;22.10;69.30
67050;DHT22;53955;52.442;13.284;2023-07-02T00:45:29;21.90;68.60
67050;DHT22;53955;52.442;13.284;2023-07-02T00:47:56;22.00;68.70
67050;DHT22;53955;52.442;13.284;2023-07-02T00:50:24;21.90;69.10
67050;DHT22;53955;52.442;13.284;2023-07-02T00:52:53;22.00;68.20
67050;DHT22;53955;52.442;13.284;2023-07-02T00:55:20;22.00;68.40
67050;DHT22;53955;52.442;13.284;2023-07-02T00:57:47;22.00;68.00
67050;DHT22;53955;52.442;13.284;2023-07-02T01:00:14;21.80;68.60
67050;DHT22;53955;52.442;13.284;2023-07-02T01:02:41;22.00;68.20
67050;DHT22;53955;52.442;13.284;2023-07-02T01:05:13;21.90;68.10
67050;DHT22;53955;52.442;13.284;2023-07-02T01:07:39;21.80;67.90
67050;DHT22;53955;52.442;13.284;2023-07-02T01:10:08;21.90;68.00
67050;DHT22;53955;52.442;13.284;2023-07-02T01:12:35;21.80;68.20
67050;DHT22;53955;52.442;13.284;2023-07-02T01:15:03;21.80;68.00
67050;DHT22;53955;52.442;13.284;2023-07-02T01:17:32;21.90;67.90
67050;DHT22;53955;52.442;13.284;2023-07-02T01:20:08;21.80;67.30
67050;DHT22;53955;52.442;13.284;2023-07-02T01:22:35;21.80;66.90
67050;DHT22;53955;52.442;13.284;2023-07-02T01:25:02;21.70;67.50
67050;DHT22;53955;52.442;13.284;2023-07-02T01:27:30;21.80;67.70
67050;DHT22;53955;52.442;13.284;2023-07-02T01:29:56;21.70;67.70
67050;DHT22;53955;52.442;13.284;2023-07-02T01:32:23;21.70;68.90
67050;DHT22;53955;52.442;13.284;2023-07-02T01:34:50;21.70;68.30
67050;DHT22;53955;52.442;13.284;2023-07-02T01:37:21;21.70;68.00
67050;DHT22;53955;52.442;13.284;2023-07-02T01:39:47;21.60;67.70
67050;DHT22;53955;52.442;13.284;2023-07-02T01:42:15;21.60;67.60
67050;DHT22;53955;52.442;13.284;2023-07-02T01:44:42;21.60;67.30
67050;DHT22;53955;52.442;13.284;2023-07-02T01:47:09;21.50;67.30
67050;DHT22;53955;52.442;13.284;2023-07-02T01:49:36;21.40;66.70
67050;DHT22;53955;52.442;13.284;2023-07-02T01:52:04;21.50;67.80
67050;DHT22;53955;52.442;13.284;2023-07-02T01:54:34;21.50;67.70
67050;DHT22;53955;52.442;13.284;2023-07-02T01:57:02;21.40;67.30
67050;DHT22;53955;52.442;13.284;2023-07-02T01:59:29;21.40;67.70
67050;DHT22;53955;52.442;13.284;2023-07-02T02:01:55;21.50;67.90
67050;DHT22;53955;52.442;13.284;2023-07-02T02:04:22;21.50;67.20
67050;DHT22;53955;52.442;13.284;2023-07-02T02:06:49;21.40;67.60
67050;DHT22;53955;52.442;13.284;2023-07-02T02:09:15;21.40;67.00
67050;DHT22;53955;52.442;13.284;2023-07-02T02:11:44;21.50;67.70
67050;DHT22;53955;52.442;13.284;2023-07-02T02:14:11;21.40;67.50
67050;DHT22;53955;52.442;13.284;2023-07-02T02:16:38;21.40;67.40
67050;DHT22;53955;52.442;13.284;2023-07-02T02:19:04;21.50;67.00
67050;DHT22;53955;52.442;13.284;2023-07-02T02:21:32;21.40;67.20
67050;DHT22;53955;52.442;13.284;2023-07-02T02:23:59;21.50;67.40
67050;DHT22;53955;52.442;13.284;2023-07-02T02:26:25;21.50;67.60
67050;DHT22;53955;52.442;13.284;2023-07-02T02:28:54;21.40;67.00
67050;DHT22;53955;52.442;13.284;2023-07-02T02:31:20;21.40;66.40
67050;DHT22;53955;52.442;13.284;2023-07-02T02:33:47;21.40;66.20
67050;DHT22;53955;52.442;13.284;2023-07-02T02:36:13;21.40;66.80
67050;DHT22;53955;52.442;13.284;2023-07-02T02:38:41;21.30;66.50
67050;DHT22;53955;52.442;13.284;2023-07-02T02:41:07;21.40;66.50
67050;DHT22;53955;52.442;13.284;2023-07-02T02:43:34;21.40;66.20
67050;DHT22;53955;52.442;13.284;2023-07-02T02:46:02;21.40;67.10
67050;DHT22;53955;52.442;13.284;2023-07-02T02:48:29;21.40;66.40
67050;DHT22;53955;52.442;13.284;2023-07-02T02:50:55;21.40;66.70
67050;DHT22;53955;52.442;13.284;2023-07-02T02:53:22;21.30;66.80
67050;DHT22;53955;52.442;13.284;2023-07-02T02:55:48;21.40;67.20
67050;DHT22;53955;52.442;13.284;2023-07-02T02:58:15;21.30;67.20
67050;DHT22;53955;52.442;13.284;2023-07-02T03:00:41;21.20;66.90
67050;DHT22;53955;52.442;13.284;2023-07-02T03:03:12;21.30;66.10
67050;DHT22;53955;52.442;13.284;2023-07-02T03:05:38;21.30;65.80
67050;DHT22;53955;52.442;13.284;2023-07-02T03:08:05;21.30;65.90
67050;DHT22;53955;52.442;13.284;2023-07-02T03:10:32;21.20;66.20
67050;DHT22;53955;52.442;13.284;2023-07-02T03:12:58;21.20;65.20
67050;DHT22;53955;52.442;13.284;2023-07-02T03:15:25;21.30;65.10
67050;DHT22;53955;52.442;13.284;2023-07-02T03:17:52;21.20;65.90
67050;DHT22;53955;52.442;13.284;2023-07-02T03:20:20;21.20;65.50
67050;DHT22;53955;52.442;13.284;2023-07-02T03:22:46;21.10;65.10
67050;DHT22;53955;52.442;13.284;2023-07-02T03:25:14;21.10;65.30
67050;DHT22;53955;52.442;13.284;2023-07-02T03:27:41;21.20;65.90
67050;DHT22;53955;52.442;13.284;2023-07-02T03:30:08;21.20;66.30
67050;DHT22;53955;52.442;13.284;2023-07-02T03:32:35;21.20;66.60
67050;DHT22;53955;52.442;13.284;2023-07-02T03:35:01;21.20;66.20
67050;DHT22;53955;52.442;13.284;2023-07-02T03:37:29;21.30;64.90
67050;DHT22;53955;52.442;13.284;2023-07-02T03:39:55;21.20;65.70
67050;DHT22;53955;52.442;13.284;2023-07-02T03:42:24;21.20;64.30
67050;DHT22;53955;52.442;13.284;2023-07-02T03:44:50;21.20;65.20
67050;DHT22;53955;52.442;13.284;2023-07-02T03:47:17;21.20;64.50
67050;DHT22;53955;52.442;13.284;2023-07-02T03:49:45;21.30;65.00
67050;DHT22;53955;52.442;13.284;2023-07-02T03:52:11;21.30;64.60
67050;DHT22;53955;52.442;13.284;2023-07-02T03:54:39;21.30;64.30
67050;DHT22;53955;52.442;13.284;2023-07-02T03:57:06;21.20;64.00
67050;DHT22;53955;52.442;13.284;2023-07-02T03:59:32;21.30;64.70
67050;DHT22;53955;52.442;13.284;2023-07-02T04:01:59;21.20;64.80
67050;DHT22;53955;52.442;13.284;2023-07-02T04:04:25;21.20;64.90
67050;DHT22;53955;52.442;13.284;2023-07-02T04:06:52;21.20;64.10
67050;DHT22;53955;52.442;13.284;2023-07-02T04:09:18;21.30;64.40
67050;DHT22;53955;52.442;13.284;2023-07-02T04:11:46;21.30;64.30
67050;DHT22;53955;52.442;13.284;2023-07-02T04:14:13;21.20;64.60
67050;DHT22;53955;52.442;13.284;2023-07-02T04:16:39;21.20;63.80
67050;DHT22;53955;52.442;13.284;2023-07-02T04:19:06;21.30;63.50
67050;DHT22;53955;52.442;13.284;2023-07-02T04:21:32;21.30;63.20
67050;DHT22;53955;52.442;13.284;2023-07-02T04:23:59;21.30;63.20
67050;DHT22;53955;52.442;13.284;2023-07-02T04:26:25;21.30;63.90
67050;DHT22;53955;52.442;13.284;2023-07-02T04:28:53;21.40;62.40
67050;DHT22;53955;52.442;13.284;2023-07-02T04:31:20;21.40;62.90
67050;DHT22;53955;52.442;13.284;2023-07-02T04:33:47;21.50;62.60
67050;DHT22;53955;52.442;13.284;2023-07-02T04:36:14;21.50;61.30
67050;DHT22;53955;52.442;13.284;2023-07-02T04:38:40;21.50;61.70
67050;DHT22;53955;52.442;13.284;2023-07-02T04:41:07;21.70;60.70
67050;DHT22;53955;52.442;13.284;2023-07-02T04:43:35;21.80;60.00
67050;DHT22;53955;52.442;13.284;2023-07-02T04:46:03;21.90;58.70
67050;DHT22;53955;52.442;13.284;2023-07-02T04:48:32;22.00;59.70
67050;DHT22;53955;52.442;13.284;2023-07-02T04:50:58;22.00;58.50
67050;DHT22;53955;52.442;13.284;2023-07-02T04:53:25;22.00;59.00
67050;DHT22;53955;52.442;13.284;2023-07-02T04:55:52;22.10;59.60
67050;DHT22;53955;52.442;13.284;2023-07-02T04:58:18;22.40;58.50
67050;DHT22;53955;52.442;13.284;2023-07-02T05:00:45;22.70;57.40
67050;DHT22;53955;52.442;13.284;2023-07-02T05:03:13;23.10;56.00
67050;DHT22;53955;52.442;13.284;2023-07-02T05:05:39;23.90;52.30
67050;DHT22;53955;52.442;13.284;2023-07-02T05:08:06;24.70;50.60
67050;DHT22;53955;52.442;13.284;2023-07-02T05:10:32;25.60;46.40
67050;DHT22;53955;52.442;13.284;2023-07-02T05:12:59;25.70;45.70
67050;DHT22;53955;52.442;13.284;2023-07-02T05:15:25;25.60;46.30
67050;DHT22;53955;52.442;13.284;2023-07-02T05:17:52;25.70;46.20
67050;DHT22;53955;52.442;13.284;2023-07-02T05:20:20;25.80;46.60
67050;DHT22;53955;52.442;13.284;2023-07-02T05:22:46;25.90;45.50
67050;DHT22;53955;52.442;13.284;2023-07-02T05:25:13;25.50;45.80
67050;DHT22;53955;52.442;13.284;2023-07-02T05:27:39;25.00;45.80
67050;DHT22;53955;52.442;13.284;2023-07-02T05:30:07;24.90;47.90
67050;DHT22;53955;52.442;13.284;2023-07-02T05:32:34;24.90;46.90
67050;DHT22;53955;52.442;13.284;2023-07-02T05:35:01;24.80;46.20
67050;DHT22;53955;52.442;13.284;2023-07-02T05:37:29;25.20;45.90
67050;DHT22;53955;52.442;13.284;2023-07-02T05:39:55;25.30;45.60
67050;DHT22;53955;52.442;13.284;2023-07-02T05:42:22;25.60;44.20
67050;DHT22;53955;52.442;13.284;2023-07-02T05:44:48;25.30;44.60
67050;DHT22;53955;52.442;13.284;2023-07-02T05:47:15;25.00;45.00
67050;DHT22;53955;52.442;13.284;2023-07-02T05:49:42;24.50;46.50
67050;DHT22;53955;52.442;13.284;2023-07-02T05:52:08;24.20;46.80
67050;DHT22;53955;52.442;13.284;2023-07-02T05:54:39;24.30;46.80
67050;DHT22;53955;52.442;13.284;2023-07-02T05:57:05;26.60;41.80
67050;DHT22;53955;52.442;13.284;2023-07-02T05:59:32;29.30;35.00
67050;DHT22;53955;52.442;13.284;2023-07-02T06:01:58;32.10;29.50
67050;DHT22;53955;52.442;13.284;2023-07-02T06:04:25;33.80;26.70
67050;DHT22;53955;52.442;13.284;2023-07-02T06:06:52;35.00;24.50
67050;DHT22;53955;52.442;13.284;2023-07-02T06:09:18;36.70;23.40
67050;DHT22;53955;52.442;13.284;2023-07-02T06:11:46;37.60;20.80
67050;DHT22;53955;52.442;13.284;2023-07-02T06:14:13;37.50;20.80
67050;DHT22;53955;52.442;13.284;2023-07-02T06:16:39;35.30;22.40
67050;DHT22;53955;52.442;13.284;2023-07-02T06:19:07;33.10;24.60
67050;DHT22;53955;52.442;13.284;2023-07-02T06:21:33;31.00;27.60
67050;DHT22;53955;52.442;13.284;2023-07-02T06:24:01;29.00;31.50
67050;DHT22;53955;52.442;13.284;2023-07-02T06:26:28;27.80;33.40
67050;DHT22;53955;52.442;13.284;2023-07-02T06:28:56;26.80;35.50
67050;DHT22;53955;52.442;13.284;2023-07-02T06:31:24;26.00;38.60
67050;DHT22;53955;52.442;13.284;2023-07-02T06:33:50;25.40;39.00
67050;DHT22;53955;52.442;13.284;2023-07-02T06:36:17;25.10;40.50
67050;DHT22;53955;52.442;13.284;2023-07-02T06:38:44;24.90;40.50
67050;DHT22;53955;52.442;13.284;2023-07-02T06:41:10;25.00;40.50
67050;DHT22;53955;52.442;13.284;2023-07-02T06:43:37;25.20;40.00
67050;DHT22;53955;52.442;13.284;2023-07-02T06:46:05;25.50;40.10
67050;DHT22;53955;52.442;13.284;2023-07-02T06:48:31;25.80;39.50
67050;DHT22;53955;52.442;13.284;2023-07-02T06:50:58;26.10;38.80
67050;DHT22;53955;52.442;13.284;2023-07-02T06:53:24;26.30;38.80
67050;DHT22;53955;52.442;13.284;2023-07-02T06:55:51;26.50;36.70
67050;DHT22;53955;52.442;13.284;2023-07-02T06:58:18;26.40;36.80
67050;DHT22;53955;52.442;13.284;2023-07-02T07:00:45;26.30;37.20
67050;DHT22;53955;52.442;13.284;2023-07-02T07:03:12;26.20;36.70
67050;DHT22;53955;52.442;13.284;2023-07-02T07:05:39;26.00;37.00
67050;DHT22;53955;52.442;13.284;2023-07-02T07:08:06;25.70;37.20
67050;DHT22;53955;52.442;13.284;2023-07-02T07:10:32;25.30;38.10
67050;DHT22;53955;52.442;13.284;2023-07-02T07:13:00;25.10;37.90
67050;DHT22;53955;52.442;13.284;2023-07-02T07:15:26;24.90;38.20
67050;DHT22;53955;52.442;13.284;2023-07-02T07:17:53;24.70;39.70
67050;DHT22;53955;52.442;13.284;2023-07-02T07:20:21;24.60;39.90
67050;DHT22;53955;52.442;13.284;2023-07-02T07:22:47;24.60;40.20
67050;DHT22;53955;52.442;13.284;2023-07-02T07:25:14;25.10;39.70
67050;DHT22;53955;52.442;13.284;2023-07-02T07:27:41;25.30;38.00
67050;DHT22;53955;52.442;13.284;2023-07-02T07:30:08;25.50;37.90
67050;DHT22;53955;52.442;13.284;2023-07-02T07:32:35;25.60;37.20
67050;DHT22;53955;52.442;13.284;2023-07-02T07:35:01;25.70;38.00
67050;DHT22;53955;52.442;13.284;2023-07-02T07:37:29;25.90;37.00
67050;DHT22;53955;52.442;13.284;2023-07-02T07:39:56;26.00;37.20
67050;DHT22;53955;52.442;13.284;2023-07-02T07:42:22;26.00;36.30
67050;DHT22;53955;52.442;13.284;2023-07-02T07:44:49;25.60;37.00
67050;DHT22;53955;52.442;13.284;2023-07-02T07:47:16;25.30;37.30
67050;DHT22;53955;52.442;13.284;2023-07-02T07:49:42;24.90;38.80
67050;DHT22;53955;52.442;13.284;2023-07-02T07:52:09;24.60;39.00
67050;DHT22;53955;52.442;13.284;2023-07-02T07:54:37;24.30;39.20
67050;DHT22;53955;52.442;13.284;2023-07-02T07:57:04;24.00;39.80
67050;DHT22;53955;52.442;13.284;2023-07-02T07:59:31;23.90;41.20
67050;DHT22;53955;52.442;13.284;2023-07-02T08:01:57;23.50;42.80
67050;DHT22;53955;52.442;13.284;2023-07-02T08:04:24;23.50;43.20
67050;DHT22;53955;52.442;13.284;2023-07-02T08:06:50;23.30;43.40
67050;DHT22;53955;52.442;13.284;2023-07-02T08:09:17;23.10;43.80
67050;DHT22;53955;52.442;13.284;2023-07-02T08:11:46;23.10;44.90
67050;DHT22;53955;52.442;13.284;2023-07-02T08:14:13;23.00;45.50
67050;DHT22;53955;52.442;13.284;2023-07-02T08:16:39;22.90;45.30
67050;DHT22;53955;52.442;13.284;2023-07-02T08:19:06;22.90;46.20
67050;DHT22;53955;52.442;13.284;2023-07-02T08:21:32;22.80;45.90
67050;DHT22;53955;52.442;13.284;2023-07-02T08:23:59;22.80;45.60
67050;DHT22;53955;52.442;13.284;2023-07-02T08:26:25;22.70;44.70
67050;DHT22;53955;52.442;13.284;2023-07-02T08:28:53;22.60;44.30
67050;DHT22;53955;52.442;13.284;2023-07-02T08:31:20;22.60;44.40
67050;DHT22;53955;52.442;13.284;2023-07-02T08:33:46;22.50;45.20
67050;DHT22;53955;52.442;13.284;2023-07-02T08:36:13;22.50;45.60
67050;DHT22;53955;52.442;13.284;2023-07-02T08:38:39;22.40;44.50
67050;DHT22;53955;52.442;13.284;2023-07-02T08:41:08;22.40;44.50
67050;DHT22;53955;52.442;13.284;2023-07-02T08:43:35;22.40;44.50
67050;DHT22;53955;52.442;13.284;2023-07-02T08:46:03;22.30;44.20
67050;DHT22;53955;52.442;13.284;2023-07-02T08:48:33;22.40;42.50
67050;DHT22;53955;52.442;13.284;2023-07-02T08:51:00;22.40;43.10
67050;DHT22;53955;52.442;13.284;2023-07-02T08:53:26;22.50;41.60
67050;DHT22;53955;52.442;13.284;2023-07-02T08:55:59;22.40;41.70
67050;DHT22;53955;52.442;13.284;2023-07-02T08:58:25;22.60;42.30
67050;DHT22;53955;52.442;13.284;2023-07-02T09:01:07;22.50;41.30
67050;DHT22;53955;52.442;13.284;2023-07-02T09:03:34;22.50;40.80
67050;DHT22;53955;52.442;13.284;2023-07-02T09:06:02;22.50;42.20
67050;DHT22;53955;52.442;13.284;2023-07-02T09:08:29;22.50;41.30
67050;DHT22;53955;52.442;13.284;2023-07-02T09:11:05;22.60;41.30
67050;DHT22;53955;52.442;13.284;2023-07-02T09:13:42;22.60;42.00
67050;DHT22;53955;52.442;13.284;2023-07-02T09:16:20;22.60;41.70
67050;DHT22;53955;52.442;13.284;2023-07-02T09:18:58;22.80;41.70
67050;DHT22;53955;52.442;13.284;2023-07-02T09:21:37;22.80;41.40
67050;DHT22;53955;52.442;13.284;2023-07-02T09:24:14;23.10;41.50
67050;DHT22;53955;52.442;13.284;2023-07-02T09:26:45;23.10;41.90
67050;DHT22;53955;52.442;13.284;2023-07-02T09:29:12;23.20;41.00
67050;DHT22;53955;52.442;13.284;2023-07-02T09:31:46;23.30;41.10
67050;DHT22;53955;52.442;13.284;2023-07-02T09:34:13;23.40;41.40
67050;DHT22;53955;52.442;13.284;2023-07-02T09:36:41;23.50;41.20
67050;DHT22;53955;52.442;13.284;2023-07-02T09:39:11;23.70;39.80
67050;DHT22;53955;52.442;13.284;2023-07-02T09:41:38;23.70;39.10
67050;DHT22;53955;52.442;13.284;2023-07-02T09:44:06;23.60;40.70
67050;DHT22;53955;52.442;13.284;2023-07-02T09:46:34;23.70;39.60
67050;DHT22;53955;52.442;13.284;2023-07-02T09:49:06;23.80;39.40
67050;DHT22;53955;52.442;13.284;2023-07-02T09:51:34;23.90;38.80
67050;DHT22;53955;52.442;13.284;2023-07-02T09:54:01;24.10;39.80
67050;DHT22;53955;52.442;13.284;2023-07-02T09:56:28;24.40;39.70
67050;DHT22;53955;52.442;13.284;2023-07-02T09:58:54;24.50;39.40
67050;DHT22;53955;52.442;13.284;2023-07-02T10:01:22;24.70;39.00
67050;DHT22;53955;52.442;13.284;2023-07-02T10:03:48;24.80;38.30
67050;DHT22;53955;52.442;13.284;2023-07-02T10:06:16;24.90;37.90
67050;DHT22;53955;52.442;13.284;2023-07-02T10:08:52;25.00;38.70
67050;DHT22;53955;52.442;13.284;2023-07-02T10:11:19;25.10;37.80
67050;DHT22;53955;52.442;13.284;2023-07-02T10:13:46;25.20;38.20
67050;DHT22;53955;52.442;13.284;2023-07-02T10:16:23;25.20;37.30
67050;DHT22;53955;52.442;13.284;2023-07-02T10:18:52;25.50;37.20
67050;DHT22;53955;52.442;13.284;2023-07-02T10:21:20;25.60;35.90
67050;DHT22;53955;52.442;13.284;2023-07-02T10:23:47;25.60;35.50
67050;DHT22;53955;52.442;13.284;2023-07-02T10:26:15;25.60;36.00
67050;DHT22;53955;52.442;13.284;2023-07-02T10:28:42;25.70;35.70
67050;DHT22;53955;52.442;13.284;2023-07-02T10:31:27;25.80;35.10
67050;DHT22;53955;52.442;13.284;2023-07-02T10:33:53;25.70;35.50
67050;DHT22;53955;52.442;13.284;2023-07-02T10:36:23;25.70;35.60
67050;DHT22;53955;52.442;13.284;2023-07-02T10:38:50;25.60;35.90
67050;DHT22;53955;52.442;13.284;2023-07-02T10:41:24;25.40;34.20
67050;DHT22;53955;52.442;13.284;2023-07-02T10:43:51;25.40;34.90
67050;DHT22;53955;52.442;13.284;2023-07-02T10:46:20;25.60;34.80
67050;DHT22;53955;52.442;13.284;2023-07-02T10:48:52;25.70;33.80
67050;DHT22;53955;52.442;13.284;2023-07-02T10:51:18;25.60;33.10
67050;DHT22;53955;52.442;13.284;2023-07-02T10:53:46;25.60;35.00
67050;DHT22;53955;52.442;13.284;2023-07-02T10:56:16;25.70;33.50
67050;DHT22;53955;52.442;13.284;2023-07-02T10:58:42;25.70;33.20
67050;DHT22;53955;52.442;13.284;2023-07-02T11:01:09;25.60;32.50
67050;DHT22;53955;52.442;13.284;2023-07-02T11:03:36;25.50;32.10
67050;DHT22;53955;52.442;13.284;2023-07-02T11:06:03;25.30;33.20
67050;DHT22;53955;52.442;13.284;2023-07-02T11:08:36;25.20;30.40
67050;DHT22;53955;52.442;13.284;2023-07-02T11:11:08;25.30;30.90
67050;DHT22;53955;52.442;13.284;2023-07-02T11:13:44;25.50;31.90
67050;DHT22;53955;52.442;13.284;2023-07-02T11:16:20;25.70;29.60
67050;DHT22;53955;52.442;13.284;2023-07-02T11:18:50;25.60;29.70
67050;DHT22;53955;52.442;13.284;2023-07-02T11:21:16;25.70;30.00
67050;DHT22;53955;52.442;13.284;2023-07-02T11:23:43;25.60;30.70
67050;DHT22;53955;52.442;13.284;2023-07-02T11:26:10;25.60;28.80
67050;DHT22;53955;52.442;13.284;2023-07-02T11:28:48;25.60;28.10
67050;DHT22;53955;52.442;13.284;2023-07-02T11:31:24;25.60;27.70
67050;DHT22;53955;52.442;13.284;2023-07-02T11:33:50;25.50;29.50
67050;DHT22;53955;52.442;13.284;2023-07-02T11:36:21;25.40;29.60
67050;DHT22;53955;52.442;13.284;2023-07-02T11:38:49;25.20;30.50
67050;DHT22;53955;52.442;13.284;2023-07-02T11:41:18;25.30;30.90
67050;DHT22;53955;52.442;13.284;2023-07-02T11:43:44;25.30;30.10
67050;DHT22;53955;52.442;13.284;2023-07-02T11:46:11;25.10;29.40
67050;DHT22;53955;52.442;13.284;2023-07-02T11:48:38;24.90;30.60
67050;DHT22;53955;52.442;13.284;2023-07-02T11:51:04;24.80;31.20
67050;DHT22;53955;52.442;13.284;2023-07-02T11:53:31;24.60;29.70
67050;DHT22;53955;52.442;13.284;2023-07-02T11:55:57;24.50;28.90
67050;DHT22;53955;52.442;13.284;2023-07-02T11:58:25;24.50;27.90
67050;DHT22;53955;52.442;13.284;2023-07-02T12:00:52;24.80;28.40
67050;DHT22;53955;52.442;13.284;2023-07-02T12:03:18;24.80;29.10
67050;DHT22;53955;52.442;13.284;2023-07-02T12:05:45;25.00;28.30
67050;DHT22;53955;52.442;13.284;2023-07-02T12:08:12;24.90;28.90
67050;DHT22;53955;52.442;13.284;2023-07-02T12:10:38;24.90;30.90
67050;DHT22;53955;52.442;13.284;2023-07-02T12:13:05;25.00;30.50
67050;DHT22;53955;52.442;13.284;2023-07-02T12:15:33;25.10;30.50
67050;DHT22;53955;52.442;13.284;2023-07-02T12:17:59;25.50;29.40
67050;DHT22;53955;52.442;13.284;2023-07-02T12:20:26;25.50;27.70
67050;DHT22;53955;52.442;13.284;2023-07-02T12:22:52;25.50;27.20
67050;DHT22;53955;52.442;13.284;2023-07-02T12:25:19;25.50;27.30
67050;DHT22;53955;52.442;13.284;2023-07-02T12:27:46;25.20;26.90
67050;DHT22;53955;52.442;13.284;2023-07-02T12:30:12;25.00;27.20
67050;DHT22;53955;52.442;13.284;2023-07-02T12:32:44;24.80;27.40
67050;DHT22;53955;52.442;13.284;2023-07-02T12:35:11;25.00;27.60
67050;DHT22;53955;52.442;13.284;2023-07-02T12:37:43;25.00;26.60
67050;DHT22;53955;52.442;13.284;2023-07-02T12:40:10;25.00;27.30
67050;DHT22;53955;52.442;13.284;2023-07-02T12:42:37;25.20;27.40
67050;DHT22;53955;52.442;13.284;2023-07-02T12:45:06;25.10;26.60
67050;DHT22;53955;52.442;13.284;2023-07-02T12:47:32;24.90;25.80
67050;DHT22;53955;52.442;13.284;2023-07-02T12:50:00;24.80;27.80
67050;DHT22;53955;52.442;13.284;2023-07-02T12:52:28;24.90;27.20
67050;DHT22;53955;52.442;13.284;2023-07-02T12:54:54;24.90;25.90
67050;DHT22;53955;52.442;13.284;2023-07-02T12:57:21;25.10;26.60
67050;DHT22;53955;52.442;13.284;2023-07-02T12:59:47;25.20;26.50
67050;DHT22;53955;52.442;13.284;2023-07-02T13:02:14;25.30;25.30
67050;DHT22;53955;52.442;13.284;2023-07-02T13:04:41;25.40;26.40
67050;DHT22;53955;52.442;13.284;2023-07-02T13:07:08;25.40;24.80
67050;DHT22;53955;52.442;13.284;2023-07-02T13:09:35;25.60;24.60
67050;DHT22;53955;52.442;13.284;2023-07-02T13:12:02;25.60;24.20
67050;DHT22;53955;52.442;13.284;2023-07-02T13:14:28;25.60;25.30
67050;DHT22;53955;52.442;13.284;2023-07-02T13:16:55;25.40;24.30
67050;DHT22;53955;52.442;13.284;2023-07-02T13:19:24;25.40;24.70
67050;DHT22;53955;52.442;13.284;2023-07-02T13:21:51;25.40;25.00
67050;DHT22;53955;52.442;13.284;2023-07-02T13:24:18;25.40;24.70
67050;DHT22;53955;52.442;13.284;2023-07-02T13:26:45;25.20;26.10
67050;DHT22;53955;52.442;13.284;2023-07-02T13:29:12;24.90;24.90
67050;DHT22;53955;52.442;13.284;2023-07-02T13:31:38;24.90;24.20
67050;DHT22;53955;52.442;13.284;2023-07-02T13:34:05;25.00;25.10
67050;DHT22;53955;52.442;13.284;2023-07-02T13:36:31;25.10;24.00
67050;DHT22;53955;52.442;13.284;2023-07-02T13:38:58;25.20;23.70
67050;DHT22;53955;52.442;13.284;2023-07-02T13:41:26;25.20;23.90
67050;DHT22;53955;52.442;13.284;2023-07-02T13:43:53;25.00;24.60
67050;DHT22;53955;52.442;13.284;2023-07-02T13:46:20;24.90;24.70
67050;DHT22;53955;52.442;13.284;2023-07-02T13:48:47;25.00;24.60
67050;DHT22;53955;52.442;13.284;2023-07-02T13:51:13;25.00;23.00
67050;DHT22;53955;52.442;13.284;2023-07-02T13:53:40;25.30;24.20
67050;DHT22;53955;52.442;13.284;2023-07-02T13:56:06;25.30;24.30
67050;DHT22;53955;52.442;13.284;2023-07-02T13:59:02;25.50;22.40
67050;DHT22;53955;52.442;13.284;2023-07-02T14:01:29;25.40;21.80
67050;DHT22;53955;52.442;13.284;2023-07-02T14:03:56;25.30;21.90
67050;DHT22;53955;52.442;13.284;2023-07-02T14:06:22;25.20;23.70
67050;DHT22;53955;52.442;13.284;2023-07-02T14:08:49;25.20;22.90
67050;DHT22;53955;52.442;13.284;2023-07-02T14:11:16;25.10;22.50
67050;DHT22;53955;52.442;13.284;2023-07-02T14:13:42;25.00;22.90
67050;DHT22;53955;52.442;13.284;2023-07-02T14:16:10;25.10;24.00
67050;DHT22;53955;52.442;13.284;2023-07-02T14:18:37;25.20;23.20
67050;DHT22;53955;52.442;13.284;2023-07-02T14:21:03;25.30;23.90
67050;DHT22;53955;52.442;13.284;2023-07-02T14:23:30;25.30;21.90
67050;DHT22;53955;52.442;13.284;2023-07-02T14:25:57;25.30;22.40
67050;DHT22;53955;52.442;13.284;2023-07-02T14:28:23;25.40;22.20
67050;DHT22;53955;52.442;13.284;2023-07-02T14:30:56;25.40;20.70
67050;DHT22;53955;52.442;13.284;2023-07-02T14:33:24;25.30;21.30
67050;DHT22;53955;52.442;13.284;2023-07-02T14:35:50;25.30;21.20
67050;DHT22;53955;52.442;13.284;2023-07-02T14:38:17;25.10;21.10
67050;DHT22;53955;52.442;13.284;2023-07-02T14:40:43;25.00;21.90
67050;DHT22;53955;52.442;13.284;2023-07-02T14:43:10;24.90;21.70
67050;DHT22;53955;52.442;13.284;2023-07-02T14:45:43;24.80;20.20
67050;DHT22;53955;52.442;13.284;2023-07-02T14:48:09;24.90;21.10
67050;DHT22;53955;52.442;13.284;2023-07-02T14:50:43;25.00;21.70
67050;DHT22;53955;52.442;13.284;2023-07-02T14:53:10;25.00;20.90
67050;DHT22;53955;52.442;13.284;2023-07-02T14:55:37;24.90;20.40
67050;DHT22;53955;52.442;13.284;2023-07-02T14:58:04;24.80;21.30
67050;DHT22;53955;52.442;13.284;2023-07-02T15:00:30;24.80;21.80
67050;DHT22;53955;52.442;13.284;2023-07-02T15:02:57;25.00;21.90
67050;DHT22;53955;52.442;13.284;2023-07-02T15:05:24;25.10;21.50
67050;DHT22;53955;52.442;13.284;2023-07-02T15:07:52;25.20;22.50
67050;DHT22;53955;52.442;13.284;2023-07-02T15:10:19;25.30;20.40
67050;DHT22;53955;52.442;13.284;2023-07-02T15:12:45;25.30;20.20
67050;DHT22;53955;52.442;13.284;2023-07-02T15:15:12;25.40;20.50
67050;DHT22;53955;52.442;13.284;2023-07-02T15:17:39;25.30;19.40